Time;durP1;ratioP1;P1;durP2;ratioP2;P2;SDS_P1;SDS_P2;PMS_P1;PMS_P2;Temp;Humidity;BMP_temperature;BMP_pressure;BME280_temperature;BME280_humidity;BME280_pressure;Samples;Min_cycle;Max_cycle;Signal;HPM_P1;HPM_P2
2022/04/22 00:00:45;;;;;;;;;;;10.70;1.00;;;;;;6283936;22;20330;-81
2022/04/22 00:03:11;;;;;;;;;;;10.80;1.00;;;;;;6282905;22;19984;-81
2022/04/22 00:05:37;;;;;;;;;;;10.70;1.00;;;;;;6285816;22;20242;-80
2022/04/22 00:08:03;;;;;;;;;;;10.70;1.00;;;;;;6287536;22;20409;-81
2022/04/22 00:10:28;;;;;;;;;;;10.70;1.00;;;;;;6283398;22;19943;-81
2022/04/22 00:12:54;;;;;;;;;;;10.70;1.00;;;;;;6282463;22;19953;-81
2022/04/22 00:15:20;;;;;;;;;;;10.60;1.00;;;;;;6281651;22;19953;-81
2022/04/22 00:17:46;;;;;;;;;;;10.60;1.40;;;;;;6282147;22;19915;-81
2022/04/22 00:20:12;;;;;;;;;;;10.60;36.70;;;;;;6282648;22;19935;-81
2022/04/22 00:22:39;;;;;;;;;;;10.60;88.70;;;;;;6282265;22;19903;-81
2022/04/22 00:25:05;;;;;;;;;;;10.50;99.90;;;;;;6283221;22;19955;-81
2022/04/22 00:27:31;;;;;;;;;;;10.50;99.90;;;;;;6281975;22;19963;-81
2022/04/22 00:29:56;;;;;;;;;;;10.50;99.90;;;;;;6282157;22;19907;-81
2022/04/22 00:32:21;;;;;;;;;;;10.40;99.90;;;;;;6280629;22;19903;-81
2022/04/22 00:34:47;;;;;;;;;;;10.40;99.90;;;;;;6282213;22;19910;-81
2022/04/22 00:37:12;;;;;;;;;;;10.40;99.90;;;;;;6279018;22;19907;-81
2022/04/22 00:39:38;;;;;;;;;;;10.30;1.00;;;;;;6283160;22;19907;-81
2022/04/22 00:42:10;;;;;;;;;;;10.30;1.00;;;;;;6282415;22;19938;-81
2022/04/22 00:44:35;;;;;;;;;;;10.30;1.00;;;;;;6282909;22;19910;-81
2022/04/22 00:47:01;;;;;;;;;;;10.20;1.00;;;;;;6281582;22;19907;-81
2022/04/22 00:49:26;;;;;;;;;;;10.20;15.80;;;;;;6281896;22;19918;-81
2022/04/22 00:51:52;;;;;;;;;;;10.10;99.90;;;;;;6281430;22;19912;-81
2022/04/22 00:54:17;;;;;;;;;;;10.10;99.90;;;;;;6281863;22;19908;-81
2022/04/22 00:56:43;;;;;;;;;;;10.10;99.90;;;;;;6282205;22;19918;-81
2022/04/22 00:59:10;;;;;;;;;;;10.00;99.90;;;;;;6279942;22;19903;-80
2022/04/22 01:01:35;;;;;;;;;;;10.00;1.00;;;;;;6282679;22;19903;-82
2022/04/22 01:09:49;;;;;;;;;;;10.00;1.00;;;;;;6283211;22;19973;-81
2022/04/22 01:12:15;;;;;;;;;;;10.00;9.40;;;;;;6282756;22;20219;-81
2022/04/22 01:14:41;;;;;;;;;;;10.00;99.90;;;;;;6283299;22;19910;-81
2022/04/22 01:17:07;;;;;;;;;;;10.00;99.90;;;;;;6282437;22;19908;-81
2022/04/22 01:19:33;;;;;;;;;;;10.00;99.90;;;;;;6282891;22;19949;-81
2022/04/22 01:21:58;;;;;;;;;;;10.00;99.90;;;;;;6283126;22;19926;-81
2022/04/22 01:24:24;;;;;;;;;;;10.00;99.90;;;;;;6282733;22;19919;-81
2022/04/22 01:26:53;;;;;;;;;;;10.00;89.80;;;;;;6283273;22;19998;-81
2022/04/22 01:29:18;;;;;;;;;;;10.00;52.00;;;;;;6282138;22;19907;-81
2022/04/22 01:31:44;;;;;;;;;;;10.00;99.90;;;;;;6283405;22;20029;-81
2022/04/22 01:34:10;;;;;;;;;;;10.00;99.90;;;;;;6282499;22;19927;-81
2022/04/22 01:36:35;;;;;;;;;;;9.90;1.00;;;;;;6282953;22;19914;-81
2022/04/22 01:39:00;;;;;;;;;;;9.90;99.90;;;;;;6281949;22;20272;-81
2022/04/22 01:41:27;;;;;;;;;;;9.90;1.00;;;;;;6282807;22;19910;-81
2022/04/22 01:43:53;;;;;;;;;;;9.80;99.90;;;;;;6282306;22;19992;-81
2022/04/22 01:46:20;;;;;;;;;;;9.80;99.90;;;;;;6282165;22;19907;-81
2022/04/22 01:48:46;;;;;;;;;;;9.80;1.00;;;;;;6282690;22;19910;-81
2022/04/22 01:51:11;;;;;;;;;;;9.80;99.90;;;;;;6281892;22;19903;-80
2022/04/22 01:53:37;;;;;;;;;;;9.80;99.90;;;;;;6282474;22;19918;-81
2022/04/22 01:56:03;;;;;;;;;;;9.90;1.00;;;;;;6282359;22;20303;-81
2022/04/22 01:58:28;;;;;;;;;;;10.00;99.90;;;;;;6281919;22;19969;-81
2022/04/22 02:00:54;;;;;;;;;;;10.10;99.90;;;;;;6282446;22;19910;-80
2022/04/22 02:03:19;;;;;;;;;;;10.20;1.50;;;;;;6282984;22;19903;-81
2022/04/22 02:05:44;;;;;;;;;;;10.20;1.00;;;;;;6282316;22;19907;-81
2022/04/22 02:08:10;;;;;;;;;;;10.20;99.90;;;;;;6281630;22;19922;-81
2022/04/22 02:10:35;;;;;;;;;;;10.30;99.90;;;;;;6281309;22;19907;-81
2022/04/22 02:13:01;;;;;;;;;;;10.30;99.90;;;;;;6281454;22;19910;-81
2022/04/22 02:15:27;;;;;;;;;;;10.30;99.90;;;;;;6281540;22;20236;-81
2022/04/22 02:17:53;;;;;;;;;;;10.30;99.90;;;;;;6282068;22;19951;-81
2022/04/22 02:20:18;;;;;;;;;;;10.20;99.90;;;;;;6280608;22;19955;-82
2022/04/22 02:22:44;;;;;;;;;;;10.20;99.90;;;;;;6281877;22;20246;-81
2022/04/22 02:25:09;;;;;;;;;;;10.20;99.90;;;;;;6282828;22;19986;-80
2022/04/22 02:30:19;;;;;;;;;;;10.10;99.90;;;;;;6286541;22;19955;-81
2022/04/22 02:32:44;;;;;;;;;;;10.10;1.00;;;;;;6284511;22;20233;-81
2022/04/22 02:35:10;;;;;;;;;;;10.00;99.90;;;;;;6281493;22;20313;-81
2022/04/22 02:37:35;;;;;;;;;;;9.90;1.00;;;;;;6281312;22;19911;-81
2022/04/22 02:40:01;;;;;;;;;;;9.90;1.00;;;;;;6281023;22;19930;-81
2022/04/22 02:45:28;;;;;;;;;;;9.80;1.00;;;;;;6281165;22;19910;-81
2022/04/22 02:47:55;;;;;;;;;;;9.80;1.00;;;;;;6280937;22;19911;-80
2022/04/22 02:50:20;;;;;;;;;;;9.80;1.00;;;;;;6282642;22;19903;-81
2022/04/22 02:52:46;;;;;;;;;;;9.80;1.00;;;;;;6283170;22;19903;-81
2022/04/22 02:55:11;;;;;;;;;;;9.70;64.20;;;;;;6282023;22;20326;-81
2022/04/22 02:57:38;;;;;;;;;;;9.60;99.90;;;;;;6282116;22;19918;-81
2022/04/22 03:00:04;;;;;;;;;;;9.50;1.00;;;;;;6280229;22;20375;-81
2022/04/22 03:02:29;;;;;;;;;;;9.50;98.80;;;;;;6281849;22;19904;-81
2022/04/22 03:04:55;;;;;;;;;;;9.40;99.90;;;;;;6282333;22;19903;-81
2022/04/22 03:07:20;;;;;;;;;;;9.40;99.90;;;;;;6284105;22;19907;-81
2022/04/22 03:09:46;;;;;;;;;;;9.40;99.90;;;;;;6283768;22;19912;-81
2022/04/22 03:12:13;;;;;;;;;;;9.40;99.90;;;;;;6284427;22;19982;-81
2022/04/22 03:14:39;;;;;;;;;;;9.40;99.90;;;;;;6284000;22;19946;-81
2022/04/22 03:17:05;;;;;;;;;;;9.30;1.00;;;;;;6284607;22;19907;-81
2022/04/22 03:19:31;;;;;;;;;;;9.30;1.00;;;;;;6289857;22;19907;-80
2022/04/22 03:21:57;;;;;;;;;;;9.30;1.00;;;;;;6297427;22;19910;-81
2022/04/22 03:24:23;;;;;;;;;;;9.30;1.00;;;;;;6293700;22;19907;-81
2022/04/22 03:26:48;;;;;;;;;;;9.30;1.00;;;;;;6280821;22;19911;-81
2022/04/22 03:29:14;;;;;;;;;;;9.30;1.00;;;;;;6284095;22;19930;-81
2022/04/22 03:31:39;;;;;;;;;;;9.40;1.00;;;;;;6282023;22;19907;-81
2022/04/22 03:34:05;;;;;;;;;;;9.40;1.00;;;;;;6284295;22;20375;-81
2022/04/22 03:36:30;;;;;;;;;;;9.40;1.00;;;;;;6282467;22;19908;-80
2022/04/22 03:38:56;;;;;;;;;;;9.50;1.00;;;;;;6284078;22;19930;-81
2022/04/22 03:41:21;;;;;;;;;;;9.60;1.00;;;;;;6281110;22;19903;-81
2022/04/22 03:43:47;;;;;;;;;;;9.70;99.90;;;;;;6283692;22;19973;-81
2022/04/22 03:46:12;;;;;;;;;;;9.60;99.90;;;;;;6283969;22;19937;-81
2022/04/22 03:48:38;;;;;;;;;;;9.60;99.90;;;;;;6283750;22;19985;-81
2022/04/22 03:51:03;;;;;;;;;;;9.60;99.90;;;;;;6282606;22;19903;-81
2022/04/22 03:53:28;;;;;;;;;;;9.60;99.90;;;;;;6281949;22;20518;-83
2022/04/22 03:55:54;;;;;;;;;;;9.60;99.90;;;;;;6283731;22;19989;-81
2022/04/22 03:58:19;;;;;;;;;;;9.60;99.90;;;;;;6283303;22;19914;-80
2022/04/22 04:00:46;;;;;;;;;;;9.60;99.90;;;;;;6284158;22;19907;-81
2022/04/22 04:03:13;;;;;;;;;;;9.60;99.90;;;;;;6283836;22;19959;-81
2022/04/22 04:05:40;;;;;;;;;;;9.60;99.90;;;;;;6283720;22;19907;-81
2022/04/22 04:08:09;;;;;;;;;;;9.60;99.90;;;;;;6283841;22;20386;-81
2022/04/22 04:16:06;;;;;;;;;;;9.70;99.90;;;;;;6283117;22;19910;-81
2022/04/22 04:18:32;;;;;;;;;;;9.70;99.90;;;;;;6284661;22;19950;-81
2022/04/22 04:23:45;;;;;;;;;;;9.70;99.90;;;;;;6285074;22;20376;-81
2022/04/22 04:26:11;;;;;;;;;;;9.70;99.90;;;;;;6284937;22;19903;-81
2022/04/22 04:28:37;;;;;;;;;;;9.70;99.90;;;;;;6283937;22;19910;-81
2022/04/22 04:31:03;;;;;;;;;;;9.60;99.90;;;;;;6283409;22;19911;-81
2022/04/22 04:33:29;;;;;;;;;;;9.60;99.90;;;;;;6284405;22;19903;-81
2022/04/22 04:35:55;;;;;;;;;;;9.60;99.90;;;;;;6282922;22;19952;-80
2022/04/22 04:38:21;;;;;;;;;;;9.60;99.90;;;;;;6283968;22;19946;-80
2022/04/22 04:40:46;;;;;;;;;;;9.60;99.90;;;;;;6283466;22;19910;-83
2022/04/22 04:43:12;;;;;;;;;;;9.60;99.90;;;;;;6283022;22;19903;-81
2022/04/22 04:45:38;;;;;;;;;;;9.60;99.90;;;;;;6283003;22;19907;-81
2022/04/22 04:48:03;;;;;;;;;;;9.70;33.20;;;;;;6283865;22;19910;-81
2022/04/22 04:50:29;;;;;;;;;;;9.70;1.00;;;;;;6282645;22;19930;-81
2022/04/22 04:52:55;;;;;;;;;;;9.70;1.00;;;;;;6287261;22;19935;-81
2022/04/22 04:55:20;;;;;;;;;;;9.70;1.00;;;;;;6288717;22;19903;-81
2022/04/22 04:57:46;;;;;;;;;;;9.70;1.00;;;;;;6284097;22;19911;-81
2022/04/22 05:00:12;;;;;;;;;;;9.70;1.00;;;;;;6283958;22;19933;-81
2022/04/22 05:02:38;;;;;;;;;;;9.70;1.00;;;;;;6283062;22;19907;-81
2022/04/22 05:05:07;;;;;;;;;;;9.80;1.00;;;;;;6285173;22;19911;-81
2022/04/22 05:07:33;;;;;;;;;;;9.90;1.00;;;;;;6284836;22;19981;-81
2022/04/22 05:09:58;;;;;;;;;;;9.90;99.90;;;;;;6281847;22;19911;-81
2022/04/22 05:12:24;;;;;;;;;;;10.00;99.90;;;;;;6285659;22;19910;-81
2022/04/22 05:14:50;;;;;;;;;;;10.20;1.00;;;;;;6284418;22;19904;-81
2022/04/22 05:17:15;;;;;;;;;;;10.20;1.00;;;;;;6283674;22;20000;-81
2022/04/22 05:19:41;;;;;;;;;;;10.20;99.90;;;;;;6282093;22;19903;-82
2022/04/22 05:22:06;;;;;;;;;;;11.00;1.00;;;;;;6282716;22;19937;-82
2022/04/22 05:24:34;;;;;;;;;;;12.50;1.00;;;;;;6284326;22;19904;-82
2022/04/22 05:27:00;;;;;;;;;;;14.00;99.90;;;;;;6282179;22;19904;-82
2022/04/22 05:35:05;;;;;;;;;;;18.10;99.90;;;;;;6283235;22;19947;-82
2022/04/22 05:37:46;;;;;;;;;;;19.40;99.90;;;;;;6283764;22;19914;-84
2022/04/22 05:40:16;;;;;;;;;;;19.70;99.90;;;;;;6284500;22;19904;-84
2022/04/22 05:52:37;;;;;;;;;;;;;;;;;;;;;
2022/04/22 05:55:05;;;;;;;;;;;26.60;99.90;;;;;;6277795;22;19914;-85
2022/04/22 05:58:12;;;;;;;;;;;28.60;99.90;;;;;;6288463;22;19926;-85
2022/04/22 06:01:06;;;;;;;;;;;30.20;99.90;;;;;;6287209;22;19904;-83
2022/04/22 06:06:34;;;;;;;;;;;31.60;99.90;;;;;;6279039;22;19903;-83
2022/04/22 06:11:48;;;;;;;;;;;34.20;99.90;;;;;;6288874;22;19930;-83
2022/04/22 06:14:36;;;;;;;;;;;34.90;99.90;;;;;;6289781;22;19950;-86
2022/04/22 06:17:02;;;;;;;;;;;36.40;99.90;;;;;;6288756;22;19911;-83
2022/04/22 06:20:00;;;;;;;;;;;;;;;;;;;;;
2022/04/22 06:23:10;;;;;;;;;;;38.00;99.90;;;;;;6286416;22;20329;-83
2022/04/22 06:26:01;;;;;;;;;;;38.50;99.90;;;;;;6285170;22;20333;-83
2022/04/22 06:28:50;;;;;;;;;;;38.70;99.90;;;;;;6270537;22;19907;-83
2022/04/22 06:31:41;;;;;;;;;;;39.50;99.90;;;;;;6263487;22;20267;-83
2022/04/22 06:34:20;;;;;;;;;;;39.00;99.90;;;;;;6284713;22;20245;-83
2022/04/22 06:37:14;;;;;;;;;;;39.60;99.90;;;;;;6283993;22;19957;-84
2022/04/22 06:48:11;;;;;;;;;;;38.80;99.90;;;;;;6282675;22;20288;-83
2022/04/22 06:50:36;;;;;;;;;;;39.00;99.90;;;;;;6281063;22;19925;-83
2022/04/22 06:53:02;;;;;;;;;;;38.50;99.90;;;;;;6292580;22;19936;-83
2022/04/22 06:55:27;;;;;;;;;;;39.10;99.90;;;;;;6298991;22;19918;-83
2022/04/22 06:57:56;;;;;;;;;;;39.00;99.90;;;;;;6289683;22;19930;-83
2022/04/22 07:00:21;;;;;;;;;;;39.00;99.90;;;;;;6285978;22;19950;-83
2022/04/22 07:02:47;;;;;;;;;;;39.80;99.90;;;;;;6286626;22;19922;-83
2022/04/22 07:05:13;;;;;;;;;;;40.10;99.90;;;;;;6286004;22;20310;-84
2022/04/22 07:07:39;;;;;;;;;;;41.20;99.90;;;;;;6284948;22;19903;-83
2022/04/22 07:10:07;;;;;;;;;;;40.70;99.90;;;;;;6284179;22;19911;-83
2022/04/22 07:12:33;;;;;;;;;;;40.90;99.90;;;;;;6288792;22;19934;-83
2022/04/22 07:15:03;;;;;;;;;;;37.50;99.90;;;;;;6288983;22;19904;-83
2022/04/22 07:17:33;;;;;;;;;;;34.20;99.90;;;;;;6286287;22;19915;-82
2022/04/22 07:20:03;;;;;;;;;;;33.10;99.90;;;;;;6284559;22;19904;-82
2022/04/22 07:22:29;;;;;;;;;;;32.00;99.90;;;;;;6291079;22;19930;-82
2022/04/22 07:25:00;;;;;;;;;;;32.10;99.90;;;;;;6289392;22;19903;-82
2022/04/22 07:27:30;;;;;;;;;;;34.00;99.90;;;;;;6281844;22;19911;-82
2022/04/22 07:29:57;;;;;;;;;;;35.70;99.90;;;;;;6288074;22;19937;-82
2022/04/22 07:32:25;;;;;;;;;;;36.90;99.90;;;;;;6289831;22;19987;-82
2022/04/22 07:34:50;;;;;;;;;;;38.10;99.90;;;;;;6290858;22;19903;-82
2022/04/22 07:37:16;;;;;;;;;;;38.50;99.90;;;;;;6289233;22;19911;-83
2022/04/22 07:39:42;;;;;;;;;;;36.90;99.90;;;;;;6285583;22;19942;-81
2022/04/22 07:42:07;;;;;;;;;;;33.80;99.90;;;;;;6284400;22;19907;-81
2022/04/22 07:47:19;;;;;;;;;;;31.30;99.90;;;;;;6283569;22;19967;-84
2022/04/22 07:49:44;;;;;;;;;;;33.10;99.90;;;;;;6286285;22;19903;-82
2022/04/22 07:52:10;;;;;;;;;;;35.40;99.90;;;;;;6287458;22;19914;-82
2022/04/22 07:54:35;;;;;;;;;;;34.20;99.90;;;;;;6284709;22;19911;-81
2022/04/22 07:57:01;;;;;;;;;;;31.20;99.90;;;;;;6283470;22;19953;-82
2022/04/22 07:59:28;;;;;;;;;;;28.10;99.90;;;;;;6279911;22;19903;-82
2022/04/22 08:01:58;;;;;;;;;;;25.50;99.90;;;;;;6283419;22;19937;-81
2022/04/22 08:04:24;;;;;;;;;;;23.70;99.90;;;;;;6282446;22;19930;-83
2022/04/22 08:06:50;;;;;;;;;;;22.50;99.90;;;;;;6284666;22;19904;-83
2022/04/22 08:09:15;;;;;;;;;;;21.20;99.90;;;;;;6284699;22;19987;-81
2022/04/22 08:11:43;;;;;;;;;;;19.90;99.90;;;;;;6284782;22;19904;-81
2022/04/22 08:14:12;;;;;;;;;;;18.80;99.90;;;;;;6281626;22;19912;-81
2022/04/22 08:16:41;;;;;;;;;;;18.00;99.90;;;;;;6284405;22;20326;-81
2022/04/22 08:19:06;;;;;;;;;;;17.50;99.90;;;;;;6285252;22;19910;-81
2022/04/22 08:21:34;;;;;;;;;;;17.10;99.90;;;;;;6284039;22;19934;-81
2022/04/22 08:24:00;;;;;;;;;;;16.90;99.90;;;;;;6283288;22;19904;-80
2022/04/22 08:26:26;;;;;;;;;;;16.50;99.90;;;;;;6283828;22;20298;-81
2022/04/22 08:28:51;;;;;;;;;;;16.30;99.90;;;;;;6284050;22;19910;-81
2022/04/22 08:31:19;;;;;;;;;;;16.10;99.90;;;;;;6281392;22;19907;-83
2022/04/22 08:33:47;;;;;;;;;;;15.90;99.90;;;;;;6283977;22;19904;-82
2022/04/22 08:36:12;;;;;;;;;;;15.90;99.90;;;;;;6281491;22;19972;-81
2022/04/22 08:38:38;;;;;;;;;;;15.80;99.90;;;;;;6281657;22;19986;-81
2022/04/22 08:41:03;;;;;;;;;;;15.80;99.90;;;;;;6282679;22;19907;-81
2022/04/22 08:43:29;;;;;;;;;;;15.60;99.90;;;;;;6283630;22;19934;-81
2022/04/22 08:45:55;;;;;;;;;;;15.60;99.90;;;;;;6283102;22;19907;-84
2022/04/22 08:51:07;;;;;;;;;;;15.70;99.90;;;;;;6282487;22;19974;-82
2022/04/22 08:53:33;;;;;;;;;;;15.90;99.90;;;;;;6281844;22;19926;-82
2022/04/22 08:56:01;;;;;;;;;;;16.10;99.90;;;;;;6280994;22;19945;-82
2022/04/22 08:58:27;;;;;;;;;;;16.60;99.90;;;;;;6281973;22;19904;-83
2022/04/22 09:00:54;;;;;;;;;;;17.20;99.90;;;;;;6281369;22;19911;-83
2022/04/22 09:03:20;;;;;;;;;;;20.90;99.90;;;;;;6283134;22;19908;-85
2022/04/22 09:05:45;;;;;;;;;;;25.20;99.90;;;;;;6282860;22;20006;-83
2022/04/22 09:08:13;;;;;;;;;;;28.40;99.90;;;;;;6284965;22;19915;-82
2022/04/22 09:10:40;;;;;;;;;;;29.00;99.90;;;;;;6283795;22;19903;-83
2022/04/22 09:13:10;;;;;;;;;;;27.90;99.90;;;;;;6281441;22;19945;-83
2022/04/22 09:15:36;;;;;;;;;;;25.90;99.90;;;;;;6282353;22;19955;-83
2022/04/22 09:18:12;;;;;;;;;;;23.90;99.90;;;;;;6281653;22;19904;-82
2022/04/22 09:20:38;;;;;;;;;;;22.30;99.90;;;;;;6281312;22;19986;-82
2022/04/22 09:23:20;;;;;;;;;;;21.30;99.90;;;;;;6281321;22;20249;-83
2022/04/22 09:25:46;;;;;;;;;;;20.30;99.90;;;;;;6282461;22;19945;-84
2022/04/22 09:28:11;;;;;;;;;;;19.80;99.90;;;;;;6281388;22;19911;-82
2022/04/22 09:30:37;;;;;;;;;;;19.20;99.90;;;;;;6282550;22;19907;-83
2022/04/22 09:33:02;;;;;;;;;;;19.10;99.90;;;;;;6280472;22;19968;-82
2022/04/22 09:35:29;;;;;;;;;;;18.70;99.90;;;;;;6283106;22;19907;-82
2022/04/22 09:43:24;;;;;;;;;;;17.40;99.90;;;;;;6292144;22;19929;-82
2022/04/22 09:45:53;;;;;;;;;;;17.00;99.90;;;;;;6290746;22;19903;-82
2022/04/22 09:48:20;;;;;;;;;;;16.90;99.90;;;;;;6284314;22;19907;-83
2022/04/22 09:50:46;;;;;;;;;;;17.00;99.90;;;;;;6283707;22;19968;-83
2022/04/22 09:53:13;;;;;;;;;;;17.20;99.90;;;;;;6284466;22;19903;-84
2022/04/22 09:55:48;;;;;;;;;;;17.10;99.90;;;;;;6285432;22;19954;-84
2022/04/22 09:58:21;;;;;;;;;;;17.10;99.90;;;;;;6283592;22;19903;-83
2022/04/22 10:00:48;;;;;;;;;;;17.10;99.90;;;;;;6283740;22;19910;-84
2022/04/22 10:03:14;;;;;;;;;;;17.20;99.90;;;;;;6284397;22;19981;-85
2022/04/22 10:05:40;;;;;;;;;;;17.30;99.90;;;;;;6284605;22;19904;-82
2022/04/22 10:08:06;;;;;;;;;;;17.40;99.90;;;;;;6282364;22;19911;-82
2022/04/22 10:10:33;;;;;;;;;;;17.40;99.90;;;;;;6284052;22;19978;-82
2022/04/22 10:13:00;;;;;;;;;;;17.40;99.90;;;;;;6282004;22;19903;-82
2022/04/22 10:15:30;;;;;;;;;;;17.40;99.90;;;;;;6283576;22;19945;-82
2022/04/22 10:17:56;;;;;;;;;;;17.40;99.90;;;;;;6282771;22;19899;-82
2022/04/22 10:20:22;;;;;;;;;;;17.40;99.90;;;;;;6283933;22;19899;-82
2022/04/22 10:22:48;;;;;;;;;;;17.40;99.90;;;;;;6282910;22;19910;-82
2022/04/22 10:25:14;;;;;;;;;;;17.30;99.90;;;;;;6283475;22;19899;-82
2022/04/22 10:27:42;;;;;;;;;;;17.50;99.90;;;;;;6282113;22;19934;-82
2022/04/22 10:30:10;;;;;;;;;;;17.60;99.90;;;;;;6280213;22;19911;-82
2022/04/22 10:32:36;;;;;;;;;;;18.00;99.90;;;;;;6280598;22;19903;-82
2022/04/22 10:35:03;;;;;;;;;;;18.10;99.90;;;;;;6281477;22;19980;-81
2022/04/22 10:37:29;;;;;;;;;;;18.30;99.90;;;;;;6281333;22;20272;-82
2022/04/22 10:39:55;;;;;;;;;;;18.30;99.90;;;;;;6281064;22;19998;-82
2022/04/22 10:42:30;;;;;;;;;;;18.10;99.90;;;;;;6280988;22;20284;-82
2022/04/22 10:47:44;;;;;;;;;;;18.10;99.90;;;;;;6281031;22;20260;-82
2022/04/22 10:50:22;;;;;;;;;;;18.00;99.90;;;;;;6281955;22;19938;-82
2022/04/22 10:53:07;;;;;;;;;;;18.40;99.90;;;;;;6282207;22;19910;-82
2022/04/22 10:55:36;;;;;;;;;;;18.20;99.90;;;;;;6281080;22;19914;-82
2022/04/22 10:58:14;;;;;;;;;;;18.20;99.90;;;;;;6281627;22;19903;-83
2022/04/22 11:00:43;;;;;;;;;;;18.00;99.90;;;;;;6278985;22;19903;-82
2022/04/22 11:03:16;;;;;;;;;;;18.20;99.90;;;;;;6280920;22;19954;-82
2022/04/22 11:05:46;;;;;;;;;;;18.60;99.90;;;;;;6280844;22;19903;-82
2022/04/22 11:08:29;;;;;;;;;;;19.00;99.90;;;;;;6286623;22;19986;-81
2022/04/22 11:10:54;;;;;;;;;;;19.50;99.90;;;;;;6290780;22;20666;-82
2022/04/22 11:13:38;;;;;;;;;;;21.70;99.90;;;;;;6288374;22;19915;-82
2022/04/22 11:16:05;;;;;;;;;;;22.20;99.90;;;;;;6290993;22;19930;-82
2022/04/22 11:18:31;;;;;;;;;;;23.70;99.90;;;;;;6291317;22;19927;-83
2022/04/22 11:21:03;;;;;;;;;;;23.90;99.90;;;;;;6290760;22;19915;-82
2022/04/22 11:23:36;;;;;;;;;;;22.70;99.90;;;;;;6289831;22;19907;-83
2022/04/22 11:26:02;;;;;;;;;;;24.10;99.90;;;;;;6293016;22;19914;-81
2022/04/22 11:28:32;;;;;;;;;;;25.00;99.90;;;;;;6292747;22;20014;-83
2022/04/22 11:31:02;;;;;;;;;;;23.30;99.90;;;;;;6294204;22;20280;-82
2022/04/22 11:33:33;;;;;;;;;;;22.80;99.90;;;;;;6297775;22;20258;-82
2022/04/22 11:36:03;;;;;;;;;;;22.40;99.90;;;;;;6302808;22;20414;-82
2022/04/22 11:38:28;;;;;;;;;;;22.00;99.90;;;;;;6293342;22;19929;-82
2022/04/22 11:40:54;;;;;;;;;;;21.80;99.90;;;;;;6293285;22;19908;-81
2022/04/22 11:43:20;;;;;;;;;;;21.60;99.90;;;;;;6292255;22;19953;-81
2022/04/22 11:45:47;;;;;;;;;;;21.70;99.90;;;;;;6293295;22;19910;-82
2022/04/22 11:48:13;;;;;;;;;;;21.90;99.90;;;;;;6291695;22;19918;-81
2022/04/22 11:50:40;;;;;;;;;;;21.80;99.90;;;;;;6293277;22;19927;-79
2022/04/22 11:53:19;;;;;;;;;;;21.40;99.90;;;;;;6289160;22;19910;-81
2022/04/22 11:55:45;;;;;;;;;;;21.20;99.90;;;;;;6292668;22;19914;-81
2022/04/22 11:58:11;;;;;;;;;;;21.90;99.90;;;;;;6292578;22;19919;-81
2022/04/22 12:06:12;;;;;;;;;;;22.50;99.90;;;;;;6293548;22;19975;-81
2022/04/22 12:08:49;;;;;;;;;;;22.40;99.90;;;;;;6293297;22;19965;-81
2022/04/22 12:11:16;;;;;;;;;;;22.80;99.90;;;;;;6292989;22;19915;-81
2022/04/22 12:13:41;;;;;;;;;;;22.80;99.90;;;;;;6291903;22;20340;-81
2022/04/22 12:16:07;;;;;;;;;;;23.00;99.90;;;;;;6291916;22;19928;-81
2022/04/22 12:18:36;;;;;;;;;;;23.10;99.90;;;;;;6290822;22;20309;-81
2022/04/22 12:21:02;;;;;;;;;;;24.40;99.90;;;;;;6291650;22;19950;-82
2022/04/22 12:23:32;;;;;;;;;;;24.50;99.90;;;;;;6292606;22;19911;-82
2022/04/22 12:25:57;;;;;;;;;;;24.50;99.90;;;;;;6291568;22;19907;-82
2022/04/22 12:28:24;;;;;;;;;;;23.90;99.90;;;;;;6289902;22;19946;-81
2022/04/22 12:30:49;;;;;;;;;;;24.30;99.90;;;;;;6290939;22;19904;-81
2022/04/22 12:33:19;;;;;;;;;;;24.60;99.90;;;;;;6290898;22;19941;-82
2022/04/22 12:35:50;;;;;;;;;;;24.50;99.90;;;;;;6288435;22;20025;-81
2022/04/22 12:38:17;;;;;;;;;;;23.80;99.90;;;;;;6291501;22;19903;-84
2022/04/22 12:40:46;;;;;;;;;;;23.60;99.90;;;;;;6294169;22;19950;-81
2022/04/22 12:43:28;;;;;;;;;;;23.60;99.90;;;;;;6293287;22;19904;-82
2022/04/22 12:54:11;;;;;;;;;;;24.50;99.90;;;;;;6293390;22;19918;-81
2022/04/22 12:56:37;;;;;;;;;;;25.60;99.90;;;;;;6291727;22;19949;-84
2022/04/22 12:59:03;;;;;;;;;;;25.10;99.90;;;;;;6294253;22;19907;-82
2022/04/22 13:01:35;;;;;;;;;;;24.00;99.90;;;;;;6293722;22;19977;-81
2022/04/22 13:04:00;;;;;;;;;;;23.50;99.90;;;;;;6292378;22;20225;-83
2022/04/22 13:06:35;;;;;;;;;;;23.20;99.90;;;;;;6294522;22;19907;-82
2022/04/22 13:09:00;;;;;;;;;;;22.90;99.90;;;;;;6293969;22;19911;-82
2022/04/22 13:11:26;;;;;;;;;;;23.00;99.90;;;;;;6294919;22;19914;-82
2022/04/22 13:13:51;;;;;;;;;;;23.30;99.90;;;;;;6294826;22;19934;-83
2022/04/22 13:16:16;;;;;;;;;;;24.00;99.90;;;;;;6292089;22;19907;-84
2022/04/22 13:18:42;;;;;;;;;;;24.80;99.90;;;;;;6292129;22;19903;-82
2022/04/22 13:21:07;;;;;;;;;;;25.30;99.90;;;;;;6294371;22;19951;-83
2022/04/22 13:23:33;;;;;;;;;;;25.90;99.90;;;;;;6294167;22;19943;-82
2022/04/22 13:25:59;;;;;;;;;;;26.30;99.90;;;;;;6294782;22;19904;-83
2022/04/22 13:28:25;;;;;;;;;;;25.80;99.90;;;;;;6294084;22;19907;-82
2022/04/22 13:30:50;;;;;;;;;;;25.60;99.90;;;;;;6293428;22;19926;-82
2022/04/22 13:33:16;;;;;;;;;;;25.10;99.90;;;;;;6293268;22;19914;-82
2022/04/22 13:35:41;;;;;;;;;;;24.90;99.90;;;;;;6293784;22;19955;-81
2022/04/22 13:38:07;;;;;;;;;;;24.40;99.90;;;;;;6293415;22;19909;-82
2022/04/22 13:40:32;;;;;;;;;;;24.00;99.90;;;;;;6292283;22;19903;-81
2022/04/22 13:42:58;;;;;;;;;;;23.60;99.90;;;;;;6294361;22;19904;-82
2022/04/22 13:53:36;;;;;;;;;;;24.30;99.90;;;;;;6291660;22;19999;-82
2022/04/22 13:56:01;;;;;;;;;;;24.40;99.90;;;;;;6294009;22;19918;-81
2022/04/22 13:58:27;;;;;;;;;;;23.90;99.90;;;;;;6292712;22;19915;-83
2022/04/22 14:00:53;;;;;;;;;;;23.80;99.90;;;;;;6291729;22;19960;-83
2022/04/22 14:03:19;;;;;;;;;;;23.70;99.90;;;;;;6293082;22;20349;-83
2022/04/22 14:05:45;;;;;;;;;;;23.40;99.90;;;;;;6293473;22;19904;-83
2022/04/22 14:08:11;;;;;;;;;;;23.40;99.90;;;;;;6291420;22;19972;-82
2022/04/22 14:10:37;;;;;;;;;;;23.80;99.90;;;;;;6293157;22;19907;-83
2022/04/22 14:13:02;;;;;;;;;;;23.60;99.90;;;;;;6293092;22;19979;-83
2022/04/22 14:15:28;;;;;;;;;;;23.50;99.90;;;;;;6291986;22;20379;-81
2022/04/22 14:17:53;;;;;;;;;;;23.20;99.90;;;;;;6291638;22;19911;-83
2022/04/22 14:20:19;;;;;;;;;;;23.00;99.90;;;;;;6292221;22;19903;-83
2022/04/22 14:22:45;;;;;;;;;;;23.40;99.90;;;;;;6292517;22;19903;-85
2022/04/22 14:25:10;;;;;;;;;;;23.10;99.90;;;;;;6290842;22;19903;-83
2022/04/22 14:27:36;;;;;;;;;;;23.30;99.90;;;;;;6293146;22;19922;-83
2022/04/22 14:30:01;;;;;;;;;;;22.70;99.90;;;;;;6293602;22;19910;-83
2022/04/22 14:32:27;;;;;;;;;;;22.60;99.90;;;;;;6289328;22;20325;-82
2022/04/22 14:34:53;;;;;;;;;;;22.40;99.90;;;;;;6291428;22;19919;-81
2022/04/22 14:37:18;;;;;;;;;;;21.90;99.90;;;;;;6292189;22;19978;-83
2022/04/22 14:39:44;;;;;;;;;;;21.80;99.90;;;;;;6292318;22;19933;-82
2022/04/22 14:42:10;;;;;;;;;;;21.80;99.90;;;;;;6292468;22;20292;-83
2022/04/22 14:44:35;;;;;;;;;;;22.10;99.90;;;;;;6291879;22;19986;-82
2022/04/22 14:47:01;;;;;;;;;;;22.20;99.90;;;;;;6291440;22;19908;-82
2022/04/22 14:49:27;;;;;;;;;;;22.30;99.90;;;;;;6293870;22;19918;-83
2022/04/22 14:51:53;;;;;;;;;;;22.30;99.90;;;;;;6293007;22;20644;-83
2022/04/22 14:54:19;;;;;;;;;;;22.00;99.90;;;;;;6293222;22;19914;-83
2022/04/22 14:56:44;;;;;;;;;;;21.80;99.90;;;;;;6292279;22;19982;-83
2022/04/22 14:59:10;;;;;;;;;;;21.60;99.90;;;;;;6292611;22;19925;-83
2022/04/22 15:01:36;;;;;;;;;;;21.70;99.90;;;;;;6293025;22;20515;-82
2022/04/22 15:04:02;;;;;;;;;;;21.60;99.90;;;;;;6293996;22;19914;-83
2022/04/22 15:06:28;;;;;;;;;;;21.50;99.90;;;;;;6291938;22;19916;-83
2022/04/22 15:08:54;;;;;;;;;;;21.40;99.90;;;;;;6293012;22;19911;-83
2022/04/22 15:11:19;;;;;;;;;;;21.00;99.90;;;;;;6292056;22;19948;-83
2022/04/22 15:13:45;;;;;;;;;;;20.90;99.90;;;;;;6293364;22;19903;-83
2022/04/22 15:16:10;;;;;;;;;;;20.70;99.90;;;;;;6290685;22;19915;-83
2022/04/22 15:24:12;;;;;;;;;;;20.20;99.90;;;;;;6292647;22;19910;-83
2022/04/22 15:26:38;;;;;;;;;;;20.40;99.90;;;;;;6291175;22;19961;-83
2022/04/22 15:29:05;;;;;;;;;;;20.50;99.90;;;;;;6292368;22;19903;-83
2022/04/22 15:31:30;;;;;;;;;;;20.40;99.90;;;;;;6292724;22;19937;-83
2022/04/22 15:33:56;;;;;;;;;;;20.30;99.90;;;;;;6292831;22;19907;-82
2022/04/22 15:36:21;;;;;;;;;;;20.30;99.90;;;;;;6290376;22;19914;-82
2022/04/22 15:38:49;;;;;;;;;;;20.40;99.90;;;;;;6291959;22;19926;-83
2022/04/22 15:41:16;;;;;;;;;;;20.20;99.90;;;;;;6291896;22;19903;-82
2022/04/22 15:43:45;;;;;;;;;;;20.00;99.90;;;;;;6292061;22;19935;-82
2022/04/22 15:46:11;;;;;;;;;;;20.00;99.90;;;;;;6292433;22;19903;-83
2022/04/22 15:48:37;;;;;;;;;;;20.00;99.90;;;;;;6292666;22;19912;-83
2022/04/22 15:51:06;;;;;;;;;;;19.80;99.90;;;;;;6292638;22;19910;-82
2022/04/22 15:53:36;;;;;;;;;;;19.60;99.90;;;;;;6291461;22;20258;-83
2022/04/22 15:56:05;;;;;;;;;;;19.50;99.90;;;;;;6290951;22;19903;-81